Terminal Aerodrome Forecast
Issued by NWS

Home | Current Version | Previous Version | Text Only | Print | Product List | Glossary On
Versions: 1 2 3 4 5 6 7 8 9 10 11 12
000
FTUS42 KTAE 202300
TAFECP
TAF
KECP 202336Z 2100/2124 22003KT P6SM BKN250
     FM210200 00000KT P6SM BKN250
     FM211500 07006KT P6SM SCT100 SCT250=

USA.gov is the U.S. government's official web portal to all federal, state and local government web resources and services.